ZSSS/SHA METAR and TAF weather

Enter ICAO airport designator
Station Type Date Time Source
ZSSS METAR 2020/01/19 00:30 UTC NOAA

ZSSS 190030Z 31003MPS 280V350 7000 BKN033 05/M00 Q1026 NOSIG


Station Type Date Time Source
ZSSS Decoded METAR 2020/01/19 00:30 UTC NOAA

Shanghai / Hongqiao, China (ZSSS) 31-10N 121-26E 3M
Jan 18, 2020 - 07:30 PM EST / 2020.01.19 0030 UTC
Wind: from the NW (310 degrees) at 7 MPH (6 KT) (direction variable):0
Visibility: 4 mile(s):0
Sky conditions: mostly cloudy
Temperature: 41 F (5 C)
Dew Point: 32 F (0 C)
Relative Humidity: 70%
Pressure (altimeter): 30.30 in. Hg (1026 hPa)
ob: ZSSS 190030Z 31003MPS 280V350 7000 BKN033 05/M00 Q1026 NOSIG
cycle: 0

Station Type Date Time Source
ZSSS TAF 2020/01/18 18:03 UTC NOAA

TAF ZSSS 181506Z 1818/1918 30004MPS 5000 BR BKN020 TX08/1906Z TN02/1821Z

Example: see airport list